createdAt,value
2022-09-26T00:01:23.023Z,99.90
2022-09-26T00:03:52.361Z,99.90
2022-09-26T00:06:20.262Z,99.90
2022-09-26T00:08:48.923Z,99.90
2022-09-26T00:11:19.978Z,99.90
2022-09-26T00:13:47.067Z,99.90
2022-09-26T00:16:15.219Z,99.90
2022-09-26T00:18:42.009Z,99.90
2022-09-26T00:21:12.639Z,99.90
2022-09-26T00:23:41.777Z,99.90
2022-09-26T00:26:09.449Z,99.90
2022-09-26T00:28:36.440Z,99.90
2022-09-26T00:31:11.790Z,99.90
2022-09-26T00:33:38.626Z,99.90
2022-09-26T00:36:06.350Z,99.90
2022-09-26T00:38:34.218Z,99.90
2022-09-26T00:41:01.515Z,99.90
2022-09-26T00:43:30.975Z,99.90
2022-09-26T00:46:02.834Z,99.90
2022-09-26T00:48:30.403Z,99.90
2022-09-26T00:50:57.750Z,99.90
2022-09-26T00:53:29.441Z,99.90
2022-09-26T00:56:12.078Z,99.90
2022-09-26T00:58:46.037Z,99.90
2022-09-26T01:01:13.955Z,99.90
2022-09-26T01:03:43.132Z,99.90
2022-09-26T01:06:10.046Z,99.90
2022-09-26T01:08:41.689Z,99.90
2022-09-26T01:11:11.583Z,99.90
2022-09-26T01:13:40.313Z,99.90
2022-09-26T01:16:07.392Z,99.90
2022-09-26T01:18:34.895Z,99.90
2022-09-26T01:21:27.345Z,99.90
2022-09-26T01:24:15.483Z,99.90
2022-09-26T01:27:15.633Z,99.90
2022-09-26T01:30:11.621Z,99.90
2022-09-26T01:32:50.246Z,99.90
2022-09-26T01:35:59.202Z,99.90
2022-09-26T01:38:40.893Z,99.90
2022-09-26T01:41:32.910Z,99.90
2022-09-26T01:44:02.357Z,99.90
2022-09-26T01:46:33.132Z,99.90
2022-09-26T01:49:28.595Z,99.90
2022-09-26T01:52:07.471Z,99.90
2022-09-26T01:54:42.971Z,99.90
2022-09-26T01:57:16.620Z,99.90
2022-09-26T01:59:53.071Z,99.90
2022-09-26T02:02:26.094Z,99.90
2022-09-26T02:05:08.992Z,99.90
2022-09-26T02:08:11.279Z,99.90
2022-09-26T02:10:52.838Z,99.90
2022-09-26T02:13:26.824Z,99.90
2022-09-26T02:15:58.722Z,99.90
2022-09-26T02:18:43.679Z,99.90
2022-09-26T02:21:16.724Z,99.90
2022-09-26T02:23:43.616Z,99.90
2022-09-26T02:26:10.372Z,99.90
2022-09-26T02:28:37.050Z,99.90
2022-09-26T02:31:05.940Z,99.90
2022-09-26T02:33:32.644Z,99.90
2022-09-26T02:35:59.516Z,99.90
2022-09-26T02:38:29.508Z,99.90
2022-09-26T02:41:06.795Z,99.90
2022-09-26T02:43:38.900Z,99.90
2022-09-26T02:46:13.820Z,99.90
2022-09-26T02:48:43.458Z,99.90
2022-09-26T02:51:33.578Z,99.90
2022-09-26T02:54:32.980Z,99.90
2022-09-26T02:57:27.888Z,99.90
2022-09-26T02:59:59.749Z,99.90
2022-09-26T03:02:43.543Z,99.90
2022-09-26T03:05:15.249Z,99.90
2022-09-26T03:07:49.898Z,99.90
2022-09-26T03:10:17.499Z,99.90
2022-09-26T03:12:45.507Z,99.90
2022-09-26T03:15:14.094Z,99.90
2022-09-26T03:17:49.800Z,99.90
2022-09-26T03:20:19.907Z,99.90
2022-09-26T03:22:46.555Z,99.90
2022-09-26T03:25:20.065Z,99.90
2022-09-26T03:27:47.182Z,99.90
2022-09-26T03:30:16.361Z,99.90
2022-09-26T03:32:42.976Z,99.90
2022-09-26T03:35:10.279Z,99.90
2022-09-26T03:37:39.950Z,99.90
2022-09-26T03:40:09.627Z,99.90
2022-09-26T03:42:36.939Z,99.90
2022-09-26T03:45:07.609Z,99.90
2022-09-26T03:47:34.943Z,99.90
2022-09-26T03:50:01.628Z,99.90
2022-09-26T03:52:28.895Z,99.90
2022-09-26T03:54:56.939Z,99.90
2022-09-26T03:57:23.610Z,99.90
2022-09-26T03:59:50.364Z,99.90
2022-09-26T04:02:17.413Z,99.90
2022-09-26T04:04:44.267Z,99.90
2022-09-26T04:07:10.913Z,99.90
2022-09-26T04:09:37.585Z,99.90
2022-09-26T04:12:04.353Z,99.90
2022-09-26T04:14:31.590Z,99.90
2022-09-26T04:16:58.349Z,99.90
2022-09-26T04:19:25.254Z,99.90
2022-09-26T04:21:52.138Z,99.90
2022-09-26T04:24:18.817Z,99.90
2022-09-26T04:26:45.500Z,99.90
2022-09-26T04:29:12.262Z,99.90
2022-09-26T04:31:39.423Z,99.90
2022-09-26T04:34:06.469Z,99.90
2022-09-26T04:36:33.572Z,99.90
2022-09-26T04:39:00.677Z,99.90
2022-09-26T04:41:28.841Z,99.90
2022-09-26T04:43:56.966Z,99.90
2022-09-26T04:46:30.624Z,99.90
2022-09-26T04:49:00.178Z,99.90
2022-09-26T04:51:28.406Z,99.90
2022-09-26T04:53:55.063Z,99.90
2022-09-26T04:56:23.743Z,99.90
2022-09-26T04:58:50.662Z,99.90
2022-09-26T05:01:19.438Z,99.90
2022-09-26T05:03:46.516Z,99.90
2022-09-26T05:06:14.593Z,99.90
2022-09-26T05:08:44.639Z,99.90
2022-09-26T05:11:11.423Z,99.90
2022-09-26T05:13:38.842Z,99.90
2022-09-26T05:16:08.648Z,99.90
2022-09-26T05:18:36.105Z,99.90
2022-09-26T05:21:03.648Z,99.90
2022-09-26T05:23:48.856Z,99.90
2022-09-26T05:26:26.511Z,99.90
2022-09-26T05:29:06.834Z,99.90
2022-09-26T05:31:37.456Z,99.90
2022-09-26T05:34:05.863Z,99.90
2022-09-26T05:36:32.532Z,99.90
2022-09-26T05:38:59.777Z,99.90
2022-09-26T05:41:31.134Z,99.90
2022-09-26T05:43:58.398Z,99.90
2022-09-26T05:46:25.772Z,99.90
2022-09-26T05:48:52.419Z,99.90
2022-09-26T05:51:21.574Z,99.90
2022-09-26T05:53:49.502Z,99.90
2022-09-26T05:56:19.208Z,99.90
2022-09-26T05:58:46.152Z,99.90
2022-09-26T06:01:15.595Z,99.90
2022-09-26T06:03:44.456Z,99.90
2022-09-26T06:06:14.179Z,99.90
2022-09-26T06:08:41.758Z,99.90
2022-09-26T06:11:12.830Z,99.90
2022-09-26T06:13:41.149Z,99.90
2022-09-26T06:16:10.981Z,99.90
2022-09-26T06:18:38.672Z,99.90
2022-09-26T06:21:06.911Z,99.90
2022-09-26T06:23:34.401Z,99.90
2022-09-26T06:26:03.285Z,99.90
2022-09-26T06:28:30.820Z,99.90
2022-09-26T06:30:57.690Z,99.90
2022-09-26T06:33:24.379Z,99.90
2022-09-26T06:36:01.804Z,99.90
2022-09-26T06:38:28.627Z,99.90
2022-09-26T06:40:55.641Z,99.90
2022-09-26T06:43:22.630Z,99.90
2022-09-26T06:45:49.464Z,99.90
2022-09-26T06:48:21.020Z,99.90
2022-09-26T06:50:55.103Z,99.90
2022-09-26T06:53:22.312Z,99.90
2022-09-26T06:55:49.115Z,99.90
2022-09-26T06:58:15.826Z,99.90
2022-09-26T07:00:42.625Z,99.90
2022-09-26T07:03:09.952Z,99.90
2022-09-26T07:05:37.238Z,99.90
2022-09-26T07:08:03.910Z,99.90
2022-09-26T07:10:32.124Z,99.90
2022-09-26T07:13:04.352Z,99.90
2022-09-26T07:15:33.478Z,99.90
2022-09-26T07:18:04.700Z,99.90
2022-09-26T07:20:33.920Z,99.90
2022-09-26T07:23:02.421Z,99.90
2022-09-26T07:25:31.629Z,99.90
2022-09-26T07:27:58.339Z,99.90
2022-09-26T07:30:25.286Z,99.90
2022-09-26T07:32:51.954Z,99.90
2022-09-26T07:35:18.584Z,99.90
2022-09-26T07:37:45.250Z,99.90
2022-09-26T07:40:12.361Z,99.90
2022-09-26T07:42:39.245Z,99.90
2022-09-26T07:45:28.936Z,99.90
2022-09-26T07:48:11.973Z,99.90
2022-09-26T07:50:38.584Z,99.90
2022-09-26T07:53:05.177Z,99.90
2022-09-26T07:55:31.856Z,99.90
2022-09-26T07:57:59.178Z,99.90
2022-09-26T08:00:26.374Z,99.90
2022-09-26T08:02:53.135Z,99.90
2022-09-26T08:05:20.213Z,99.90
2022-09-26T08:07:48.158Z,99.90
2022-09-26T08:10:24.002Z,99.90
2022-09-26T08:12:50.938Z,99.90
2022-09-26T08:15:17.698Z,99.90
2022-09-26T08:17:44.417Z,99.90
2022-09-26T08:20:11.118Z,99.90
2022-09-26T08:22:37.830Z,99.90
2022-09-26T08:25:06.802Z,99.90
2022-09-26T08:27:34.750Z,99.90
2022-09-26T08:30:03.169Z,99.90
2022-09-26T08:32:32.255Z,99.90
2022-09-26T08:35:00.084Z,99.90
2022-09-26T08:37:31.141Z,99.90
2022-09-26T08:39:57.833Z,99.90
2022-09-26T08:43:04.249Z,99.90
2022-09-26T08:46:11.899Z,99.90
2022-09-26T08:49:21.535Z,99.90
2022-09-26T08:51:51.137Z,99.90
2022-09-26T08:54:39.478Z,99.90
2022-09-26T08:57:34.020Z,99.90
2022-09-26T09:00:10.337Z,99.90
2022-09-26T09:03:10.026Z,99.90
2022-09-26T09:05:48.806Z,99.90
2022-09-26T09:08:39.460Z,99.90
2022-09-26T09:11:43.187Z,99.90
2022-09-26T09:14:24.083Z,99.90
2022-09-26T09:17:00.029Z,99.90
2022-09-26T09:19:32.544Z,99.90
2022-09-26T09:22:09.794Z,99.90
2022-09-26T09:24:44.870Z,99.90
2022-09-26T09:28:00.077Z,99.90
2022-09-26T09:30:40.108Z,99.90
2022-09-26T09:33:26.036Z,99.90
2022-09-26T09:35:55.356Z,99.90
2022-09-26T09:38:30.439Z,99.90
2022-09-26T09:41:09.597Z,99.90
2022-09-26T09:43:51.730Z,99.90
2022-09-26T09:46:23.607Z,99.90
2022-09-26T09:48:56.721Z,99.90
2022-09-26T09:51:52.622Z,99.90
2022-09-26T09:54:57.194Z,99.90
2022-09-26T09:57:26.803Z,99.90
2022-09-26T10:00:07.455Z,99.90
2022-09-26T10:02:53.148Z,99.80
2022-09-26T10:05:26.593Z,99.90
2022-09-26T10:07:58.398Z,99.90
2022-09-26T10:10:58.548Z,99.80
2022-09-26T10:13:26.953Z,99.60
2022-09-26T10:16:01.006Z,99.50
2022-09-26T10:18:28.105Z,99.60
2022-09-26T10:21:06.670Z,99.50
2022-09-26T10:23:39.583Z,99.30
2022-09-26T10:26:09.326Z,99.20
2022-09-26T10:28:45.136Z,99.40
2022-09-26T10:31:25.980Z,99.00
2022-09-26T10:33:59.249Z,98.80
2022-09-26T10:36:38.301Z,98.50
2022-09-26T10:39:34.659Z,99.00
2022-09-26T10:42:03.300Z,98.80
2022-09-26T10:44:36.123Z,99.20
2022-09-26T10:47:08.528Z,99.00
2022-09-26T10:49:51.102Z,98.70
2022-09-26T10:52:28.677Z,98.40
2022-09-26T10:55:13.701Z,98.70
2022-09-26T10:57:46.594Z,98.40
2022-09-26T11:00:19.663Z,98.30
2022-09-26T11:02:51.796Z,98.50
2022-09-26T11:05:39.088Z,98.70
2022-09-26T11:08:06.916Z,98.80
2022-09-26T11:10:34.310Z,98.20
2022-09-26T11:13:18.768Z,98.80
2022-09-26T11:16:11.870Z,98.30
2022-09-26T11:18:59.366Z,98.60
2022-09-26T11:21:42.459Z,99.20
2022-09-26T11:24:37.585Z,97.10
2022-09-26T11:27:31.884Z,97.50
2022-09-26T11:30:10.434Z,97.80
2022-09-26T11:32:42.819Z,98.50
2022-09-26T11:35:47.287Z,98.70
2022-09-26T11:38:26.785Z,99.00
2022-09-26T11:41:13.266Z,99.40
2022-09-26T11:43:49.444Z,99.60
2022-09-26T11:46:29.001Z,99.90
2022-09-26T11:49:28.376Z,99.90
2022-09-26T11:52:32.682Z,99.90
2022-09-26T11:55:30.886Z,99.90
2022-09-26T11:58:09.872Z,99.90
2022-09-26T12:00:52.536Z,99.90
2022-09-26T12:04:05.544Z,99.90
2022-09-26T12:06:52.497Z,99.90
2022-09-26T12:09:22.062Z,99.90
2022-09-26T12:12:31.519Z,99.90
2022-09-26T12:15:23.731Z,99.90
2022-09-26T12:18:05.402Z,99.90
2022-09-26T12:20:36.125Z,99.90
2022-09-26T12:23:11.479Z,99.90
2022-09-26T12:26:08.791Z,99.90
2022-09-26T12:28:57.020Z,99.90
2022-09-26T12:31:30.395Z,99.90
2022-09-26T12:34:13.620Z,99.90
2022-09-26T12:36:55.017Z,99.90
2022-09-26T12:39:43.615Z,99.90
2022-09-26T12:42:38.378Z,99.90
2022-09-26T12:45:38.101Z,99.90
2022-09-26T12:48:07.530Z,99.90
2022-09-26T12:50:55.657Z,99.90
2022-09-26T12:53:25.238Z,99.90
2022-09-26T12:56:07.006Z,99.90
2022-09-26T12:58:45.632Z,99.90
2022-09-26T13:01:34.011Z,99.90
2022-09-26T13:04:23.717Z,99.90
2022-09-26T13:07:17.813Z,99.90
2022-09-26T13:10:08.131Z,99.90
2022-09-26T13:12:41.116Z,99.90
2022-09-26T13:15:19.809Z,99.90
2022-09-26T13:17:53.343Z,99.90
2022-09-26T13:20:26.899Z,99.90
2022-09-26T13:23:17.567Z,99.90
2022-09-26T13:25:49.543Z,99.90
2022-09-26T13:28:38.185Z,99.90
2022-09-26T13:31:20.210Z,99.90
2022-09-26T13:34:12.778Z,99.90
2022-09-26T13:36:42.221Z,99.90
2022-09-26T13:39:18.206Z,99.90
2022-09-26T13:41:51.267Z,99.90
2022-09-26T13:44:39.564Z,99.90
2022-09-26T13:47:29.495Z,99.90
2022-09-26T13:50:03.342Z,99.90
2022-09-26T13:52:36.036Z,99.90
2022-09-26T13:55:19.218Z,99.90
2022-09-26T13:58:03.814Z,99.90
2022-09-26T14:00:30.508Z,99.90
2022-09-26T14:03:16.611Z,99.90
2022-09-26T14:05:52.223Z,99.90
2022-09-26T14:08:43.452Z,99.90
2022-09-26T14:11:24.449Z,99.90
2022-09-26T14:14:19.370Z,99.90
2022-09-26T14:16:47.838Z,99.90
2022-09-26T14:19:14.372Z,99.90
2022-09-26T14:22:02.449Z,99.90
2022-09-26T14:24:44.326Z,99.90
2022-09-26T14:27:13.653Z,99.90
2022-09-26T14:29:40.518Z,99.90
2022-09-26T14:32:10.398Z,99.90
2022-09-26T14:34:48.267Z,99.90
2022-09-26T14:37:31.128Z,99.90
2022-09-26T14:40:10.025Z,99.90
2022-09-26T14:42:47.646Z,99.90
2022-09-26T14:45:17.081Z,99.90
2022-09-26T14:47:51.122Z,99.90
2022-09-26T14:50:21.464Z,99.90
2022-09-26T14:52:57.575Z,99.90
2022-09-26T14:55:25.816Z,99.90
2022-09-26T14:57:52.720Z,99.90
2022-09-26T15:00:40.733Z,99.90
2022-09-26T15:03:14.622Z,99.90
2022-09-26T15:05:42.921Z,99.90
2022-09-26T15:08:28.568Z,99.90
2022-09-26T15:10:58.237Z,99.90
2022-09-26T15:13:43.259Z,99.90
2022-09-26T15:16:19.079Z,99.90
2022-09-26T15:18:55.382Z,99.90
2022-09-26T15:21:38.397Z,99.90
2022-09-26T15:24:23.955Z,99.90
2022-09-26T15:26:51.792Z,99.90
2022-09-26T15:29:18.582Z,99.90
2022-09-26T15:31:47.157Z,99.90
2022-09-26T15:34:31.657Z,99.90
2022-09-26T15:36:59.590Z,99.90
2022-09-26T15:39:32.069Z,99.90
2022-09-26T15:42:19.190Z,99.90
2022-09-26T15:45:16.495Z,99.90
2022-09-26T15:47:43.277Z,99.90
2022-09-26T15:50:20.839Z,99.90
2022-09-26T15:52:55.293Z,99.90
2022-09-26T15:55:28.182Z,99.90
2022-09-26T15:57:59.011Z,99.90
2022-09-26T16:00:25.786Z,99.90
2022-09-26T16:02:52.583Z,99.90
2022-09-26T16:05:21.749Z,99.90
2022-09-26T16:07:51.042Z,99.90
2022-09-26T16:10:31.660Z,99.90
2022-09-26T16:13:00.410Z,99.90
2022-09-26T16:15:29.630Z,99.90
2022-09-26T16:17:58.080Z,99.90
2022-09-26T16:20:30.928Z,99.90
2022-09-26T16:23:04.815Z,99.90
2022-09-26T16:25:34.754Z,99.90
2022-09-26T16:28:18.982Z,99.90
2022-09-26T16:31:08.360Z,99.90
2022-09-26T16:33:38.582Z,99.90
2022-09-26T16:36:17.977Z,99.90
2022-09-26T16:38:54.807Z,99.90
2022-09-26T16:42:01.684Z,99.90
2022-09-26T16:44:33.674Z,99.90
2022-09-26T16:47:04.659Z,99.90
2022-09-26T16:49:47.129Z,99.90
2022-09-26T16:52:36.789Z,99.90
2022-09-26T16:55:06.622Z,99.90
2022-09-26T16:57:53.290Z,99.90
2022-09-26T17:00:45.347Z,99.90
2022-09-26T17:03:29.083Z,99.90
2022-09-26T17:06:00.831Z,99.90
2022-09-26T17:08:28.256Z,99.90
2022-09-26T17:10:56.956Z,99.90
2022-09-26T17:13:28.788Z,99.90
2022-09-26T17:16:00.594Z,99.90
2022-09-26T17:18:29.214Z,99.90
2022-09-26T17:20:57.042Z,99.90
2022-09-26T17:23:41.145Z,99.90
2022-09-26T17:26:14.397Z,99.90
2022-09-26T17:28:42.603Z,99.90
2022-09-26T17:31:14.756Z,99.90
2022-09-26T17:33:42.532Z,99.90
2022-09-26T17:36:16.641Z,99.90
2022-09-26T17:38:43.396Z,99.90
2022-09-26T17:41:12.592Z,99.90
2022-09-26T17:43:39.397Z,99.90
2022-09-26T17:46:12.705Z,99.90
2022-09-26T17:48:41.635Z,99.90
2022-09-26T17:51:13.601Z,99.90
2022-09-26T17:53:50.159Z,99.90
2022-09-26T17:56:17.695Z,99.90
2022-09-26T17:58:45.469Z,99.90
2022-09-26T18:01:22.412Z,99.90
2022-09-26T18:03:51.153Z,99.90
2022-09-26T18:06:20.341Z,99.90
2022-09-26T18:08:47.067Z,99.90
2022-09-26T18:11:17.495Z,99.90
2022-09-26T18:13:54.374Z,99.90
2022-09-26T18:16:24.963Z,99.90
2022-09-26T18:18:51.961Z,99.90
2022-09-26T18:21:19.887Z,99.90
2022-09-26T18:23:56.913Z,99.90
2022-09-26T18:26:37.278Z,99.90
2022-09-26T18:29:08.120Z,99.90
2022-09-26T18:31:40.989Z,99.90
2022-09-26T18:34:16.379Z,99.90
2022-09-26T18:36:43.207Z,99.90
2022-09-26T18:39:10.660Z,99.90
2022-09-26T18:41:39.597Z,99.90
2022-09-26T18:44:07.709Z,99.90
2022-09-26T18:46:36.271Z,99.90
2022-09-26T18:49:06.205Z,99.90
2022-09-26T18:51:33.327Z,99.90
2022-09-26T18:54:01.583Z,99.90
2022-09-26T18:56:46.845Z,99.90
2022-09-26T18:59:14.657Z,99.90
2022-09-26T19:01:43.479Z,99.90
2022-09-26T19:04:19.231Z,99.90
2022-09-26T19:06:49.397Z,99.90
2022-09-26T19:09:19.472Z,99.90
2022-09-26T19:11:47.181Z,99.90
2022-09-26T19:14:24.503Z,99.90
2022-09-26T19:16:51.206Z,99.90
2022-09-26T19:19:17.991Z,99.90
2022-09-26T19:21:54.303Z,99.90
2022-09-26T19:24:33.000Z,99.90
2022-09-26T19:27:06.202Z,99.90
2022-09-26T19:29:43.170Z,99.90
2022-09-26T19:32:18.515Z,99.90
2022-09-26T19:34:51.899Z,99.90
2022-09-26T19:37:18.553Z,99.90
2022-09-26T19:39:45.370Z,99.90
2022-09-26T19:42:12.136Z,99.90
2022-09-26T19:44:38.870Z,99.90
2022-09-26T19:47:05.677Z,99.90
2022-09-26T19:49:32.787Z,99.90
2022-09-26T19:52:02.698Z,99.90
2022-09-26T19:54:29.948Z,99.90
2022-09-26T19:56:56.587Z,99.90
2022-09-26T19:59:27.351Z,99.90
2022-09-26T20:01:54.552Z,99.90
2022-09-26T20:04:22.379Z,99.90
2022-09-26T20:06:49.059Z,99.90
2022-09-26T20:09:18.468Z,99.90
2022-09-26T20:11:45.630Z,99.90
2022-09-26T20:14:24.605Z,99.90
2022-09-26T20:16:54.243Z,99.90
2022-09-26T20:19:39.536Z,99.90
2022-09-26T20:22:13.181Z,99.90
2022-09-26T20:24:40.462Z,99.90
2022-09-26T20:27:12.593Z,99.90
2022-09-26T20:29:57.921Z,99.90
2022-09-26T20:32:24.561Z,99.90
2022-09-26T20:34:51.174Z,99.90
2022-09-26T20:37:19.796Z,99.90
2022-09-26T20:39:47.044Z,99.90
2022-09-26T20:42:17.631Z,99.90
2022-09-26T20:44:47.133Z,99.90
2022-09-26T20:47:19.473Z,99.90
2022-09-26T20:49:56.134Z,99.90
2022-09-26T20:52:25.785Z,99.90
2022-09-26T20:54:53.695Z,99.90
2022-09-26T20:57:22.364Z,99.90
2022-09-26T20:59:49.834Z,99.90
2022-09-26T21:02:36.835Z,99.90
2022-09-26T21:05:04.210Z,99.90
2022-09-26T21:07:32.600Z,99.90
2022-09-26T21:09:59.248Z,99.90
2022-09-26T21:12:25.964Z,99.90
2022-09-26T21:14:52.551Z,99.90
2022-09-26T21:17:29.087Z,99.90
2022-09-26T21:19:56.243Z,99.90
2022-09-26T21:22:26.351Z,99.90
2022-09-26T21:24:54.049Z,99.90
2022-09-26T21:27:20.824Z,99.90
2022-09-26T21:29:47.462Z,99.90
2022-09-26T21:32:18.991Z,99.90
2022-09-26T21:35:03.173Z,99.90
2022-09-26T21:37:30.697Z,99.90
2022-09-26T21:39:57.728Z,99.90
2022-09-26T21:42:25.682Z,99.90
2022-09-26T21:44:56.936Z,99.90
2022-09-26T21:47:24.583Z,99.90
2022-09-26T21:49:51.753Z,99.90
2022-09-26T21:52:31.497Z,99.90
2022-09-26T21:55:00.088Z,99.90
2022-09-26T21:57:31.514Z,99.90
2022-09-26T21:59:58.741Z,99.90
2022-09-26T22:02:26.171Z,99.90
2022-09-26T22:04:52.966Z,99.90
2022-09-26T22:07:20.806Z,99.90
2022-09-26T22:09:47.500Z,99.90
2022-09-26T22:12:14.192Z,99.90
2022-09-26T22:14:41.557Z,99.90
2022-09-26T22:17:08.402Z,99.90
2022-09-26T22:19:35.227Z,99.90
2022-09-26T22:22:02.157Z,99.90
2022-09-26T22:24:28.999Z,99.90
2022-09-26T22:26:55.693Z,99.90
2022-09-26T22:29:22.389Z,99.90
2022-09-26T22:31:49.027Z,99.90
2022-09-26T22:34:15.788Z,99.90
2022-09-26T22:36:42.381Z,99.90
2022-09-26T22:39:09.109Z,99.90
2022-09-26T22:41:35.770Z,99.90
2022-09-26T22:44:03.968Z,99.90
2022-09-26T22:46:33.629Z,99.90
2022-09-26T22:49:00.542Z,99.90
2022-09-26T22:51:27.316Z,99.90
2022-09-26T22:53:54.358Z,99.90
2022-09-26T22:56:21.015Z,99.90
2022-09-26T22:58:49.860Z,99.90
2022-09-26T23:01:19.879Z,99.90
2022-09-26T23:03:46.501Z,99.90
2022-09-26T23:06:13.148Z,99.90
2022-09-26T23:08:39.813Z,99.90
2022-09-26T23:11:08.203Z,99.90
2022-09-26T23:13:35.697Z,99.90
2022-09-26T23:16:28.916Z,99.90
2022-09-26T23:18:57.259Z,99.90
2022-09-26T23:21:27.088Z,99.90
2022-09-26T23:23:56.295Z,99.90
2022-09-26T23:26:26.085Z,99.90
2022-09-26T23:28:54.427Z,99.90
2022-09-26T23:31:21.838Z,99.90
2022-09-26T23:33:48.740Z,99.90
2022-09-26T23:36:15.831Z,99.90
2022-09-26T23:38:42.530Z,99.90
2022-09-26T23:41:10.709Z,99.90
2022-09-26T23:43:37.695Z,99.90
2022-09-26T23:46:05.362Z,99.90
2022-09-26T23:48:32.259Z,99.90
2022-09-26T23:50:59.156Z,99.90
2022-09-26T23:53:26.572Z,99.90
2022-09-26T23:56:01.423Z,99.90
2022-09-26T23:58:28.174Z,99.90
